sensor_id;sensor_type;location;lat;lon;timestamp;P1;durP1;ratioP1;P2;durP2;ratioP2
75165;SDS011;63747;48.042;10.088;2023-02-28T00:00:56;4.60;;;2.50;;
75165;SDS011;63747;48.042;10.088;2023-02-28T00:03:56;3.60;;;2.00;;
75165;SDS011;63747;48.042;10.088;2023-02-28T00:06:57;4.33;;;2.33;;
75165;SDS011;63747;48.042;10.088;2023-02-28T00:09:58;3.27;;;1.70;;
75165;SDS011;63747;48.042;10.088;2023-02-28T00:13:00;3.77;;;2.17;;
75165;SDS011;63747;48.042;10.088;2023-02-28T00:16:07;4.50;;;2.30;;
75165;SDS011;63747;48.042;10.088;2023-02-28T00:19:09;3.75;;;2.40;;
75165;SDS011;63747;48.042;10.088;2023-02-28T00:22:09;6.00;;;2.40;;
75165;SDS011;63747;48.042;10.088;2023-02-28T00:25:11;3.13;;;1.93;;
75165;SDS011;63747;48.042;10.088;2023-02-28T00:28:13;5.55;;;2.58;;
75165;SDS011;63747;48.042;10.088;2023-02-28T00:31:14;3.43;;;2.63;;
75165;SDS011;63747;48.042;10.088;2023-02-28T00:34:15;2.83;;;1.93;;
75165;SDS011;63747;48.042;10.088;2023-02-28T00:37:16;3.40;;;2.00;;
75165;SDS011;63747;48.042;10.088;2023-02-28T00:40:16;4.00;;;1.80;;
75165;SDS011;63747;48.042;10.088;2023-02-28T00:43:17;3.73;;;2.57;;
75165;SDS011;63747;48.042;10.088;2023-02-28T00:46:18;4.03;;;2.93;;
75165;SDS011;63747;48.042;10.088;2023-02-28T00:49:18;3.40;;;2.20;;
75165;SDS011;63747;48.042;10.088;2023-02-28T00:52:19;3.93;;;2.23;;
75165;SDS011;63747;48.042;10.088;2023-02-28T00:55:20;3.23;;;2.10;;
75165;SDS011;63747;48.042;10.088;2023-02-28T00:58:20;6.50;;;2.43;;
75165;SDS011;63747;48.042;10.088;2023-02-28T01:01:21;4.63;;;2.63;;
75165;SDS011;63747;48.042;10.088;2023-02-28T01:04:22;6.53;;;2.70;;
75165;SDS011;63747;48.042;10.088;2023-02-28T01:07:23;4.33;;;2.70;;
75165;SDS011;63747;48.042;10.088;2023-02-28T01:10:24;5.37;;;2.33;;
75165;SDS011;63747;48.042;10.088;2023-02-28T01:13:25;3.65;;;2.55;;
75165;SDS011;63747;48.042;10.088;2023-02-28T01:16:26;3.20;;;1.97;;
75165;SDS011;63747;48.042;10.088;2023-02-28T01:19:27;4.53;;;2.05;;
75165;SDS011;63747;48.042;10.088;2023-02-28T01:22:28;6.10;;;2.80;;
75165;SDS011;63747;48.042;10.088;2023-02-28T01:25:28;4.53;;;2.63;;
75165;SDS011;63747;48.042;10.088;2023-02-28T01:28:29;4.90;;;2.60;;
75165;SDS011;63747;48.042;10.088;2023-02-28T01:31:30;4.70;;;2.97;;
75165;SDS011;63747;48.042;10.088;2023-02-28T01:34:31;2.97;;;1.67;;
75165;SDS011;63747;48.042;10.088;2023-02-28T01:37:31;3.10;;;2.40;;
75165;SDS011;63747;48.042;10.088;2023-02-28T01:40:32;3.43;;;2.57;;
75165;SDS011;63747;48.042;10.088;2023-02-28T01:46:42;3.30;;;2.33;;
75165;SDS011;63747;48.042;10.088;2023-02-28T01:49:43;4.10;;;2.90;;
75165;SDS011;63747;48.042;10.088;2023-02-28T01:52:45;4.00;;;3.20;;
75165;SDS011;63747;48.042;10.088;2023-02-28T01:55:48;5.35;;;2.75;;
75165;SDS011;63747;48.042;10.088;2023-02-28T01:58:52;3.60;;;2.78;;
75165;SDS011;63747;48.042;10.088;2023-02-28T02:01:54;3.90;;;2.47;;
75165;SDS011;63747;48.042;10.088;2023-02-28T02:04:59;7.83;;;3.70;;
75165;SDS011;63747;48.042;10.088;2023-02-28T02:08:05;3.65;;;2.70;;
75165;SDS011;63747;48.042;10.088;2023-02-28T02:11:09;4.10;;;3.05;;
75165;SDS011;63747;48.042;10.088;2023-02-28T02:14:17;5.45;;;3.45;;
75165;SDS011;63747;48.042;10.088;2023-02-28T02:17:45;5.72;;;3.55;;
75165;SDS011;63747;48.042;10.088;2023-02-28T02:24:03;3.97;;;3.22;;
75165;SDS011;63747;48.042;10.088;2023-02-28T02:34:20;4.70;;;2.97;;
75165;SDS011;63747;48.042;10.088;2023-02-28T02:37:47;6.68;;;3.65;;
75165;SDS011;63747;48.042;10.088;2023-02-28T02:44:15;6.53;;;3.83;;
75165;SDS011;63747;48.042;10.088;2023-02-28T02:47:22;6.80;;;3.90;;
75165;SDS011;63747;48.042;10.088;2023-02-28T02:50:29;6.00;;;4.20;;
75165;SDS011;63747;48.042;10.088;2023-02-28T02:53:34;5.15;;;3.92;;
75165;SDS011;63747;48.042;10.088;2023-02-28T02:56:40;4.43;;;3.63;;
75165;SDS011;63747;48.042;10.088;2023-02-28T02:59:43;6.63;;;3.88;;
75165;SDS011;63747;48.042;10.088;2023-02-28T03:02:45;6.17;;;4.00;;
75165;SDS011;63747;48.042;10.088;2023-02-28T03:05:49;5.25;;;3.80;;
75165;SDS011;63747;48.042;10.088;2023-02-28T03:08:50;5.45;;;4.25;;
75165;SDS011;63747;48.042;10.088;2023-02-28T03:11:54;5.73;;;3.70;;
75165;SDS011;63747;48.042;10.088;2023-02-28T03:18:48;5.88;;;4.45;;
75165;SDS011;63747;48.042;10.088;2023-02-28T03:25:45;5.00;;;3.60;;
75165;SDS011;63747;48.042;10.088;2023-02-28T03:29:16;5.70;;;3.88;;
75165;SDS011;63747;48.042;10.088;2023-02-28T03:32:36;5.45;;;4.40;;
75165;SDS011;63747;48.042;10.088;2023-02-28T03:35:43;5.10;;;3.72;;
75165;SDS011;63747;48.042;10.088;2023-02-28T03:38:54;6.53;;;4.32;;
75165;SDS011;63747;48.042;10.088;2023-02-28T03:42:05;5.25;;;3.90;;
75165;SDS011;63747;48.042;10.088;2023-02-28T03:45:11;7.40;;;4.88;;
75165;SDS011;63747;48.042;10.088;2023-02-28T03:51:24;7.35;;;4.55;;
75165;SDS011;63747;48.042;10.088;2023-02-28T03:54:30;6.25;;;3.85;;
75165;SDS011;63747;48.042;10.088;2023-02-28T03:57:56;5.93;;;4.88;;
75165;SDS011;63747;48.042;10.088;2023-02-28T04:01:08;8.23;;;5.03;;
75165;SDS011;63747;48.042;10.088;2023-02-28T04:04:15;9.20;;;4.28;;
75165;SDS011;63747;48.042;10.088;2023-02-28T04:07:17;6.05;;;4.15;;
75165;SDS011;63747;48.042;10.088;2023-02-28T04:10:18;6.73;;;5.20;;
75165;SDS011;63747;48.042;10.088;2023-02-28T04:13:18;6.67;;;3.83;;
75165;SDS011;63747;48.042;10.088;2023-02-28T04:16:19;7.07;;;5.03;;
75165;SDS011;63747;48.042;10.088;2023-02-28T04:19:20;6.37;;;4.57;;
75165;SDS011;63747;48.042;10.088;2023-02-28T04:22:20;6.27;;;4.53;;
75165;SDS011;63747;48.042;10.088;2023-02-28T04:25:21;4.40;;;2.80;;
75165;SDS011;63747;48.042;10.088;2023-02-28T04:28:22;6.47;;;4.80;;
75165;SDS011;63747;48.042;10.088;2023-02-28T04:31:22;8.23;;;5.13;;
75165;SDS011;63747;48.042;10.088;2023-02-28T04:34:23;6.77;;;4.93;;
75165;SDS011;63747;48.042;10.088;2023-02-28T04:37:24;7.78;;;4.75;;
75165;SDS011;63747;48.042;10.088;2023-02-28T04:40:28;8.80;;;4.95;;
75165;SDS011;63747;48.042;10.088;2023-02-28T04:43:29;7.23;;;5.10;;
75165;SDS011;63747;48.042;10.088;2023-02-28T04:46:30;9.23;;;5.25;;
75165;SDS011;63747;48.042;10.088;2023-02-28T04:49:31;5.60;;;3.80;;
75165;SDS011;63747;48.042;10.088;2023-02-28T04:52:32;9.75;;;6.10;;
75165;SDS011;63747;48.042;10.088;2023-02-28T04:55:33;7.90;;;5.45;;
75165;SDS011;63747;48.042;10.088;2023-02-28T04:58:34;7.47;;;5.27;;
75165;SDS011;63747;48.042;10.088;2023-02-28T05:01:35;10.33;;;6.00;;
75165;SDS011;63747;48.042;10.088;2023-02-28T05:04:36;9.25;;;6.20;;
75165;SDS011;63747;48.042;10.088;2023-02-28T05:07:37;8.20;;;5.07;;
75165;SDS011;63747;48.042;10.088;2023-02-28T05:10:38;7.93;;;5.63;;
75165;SDS011;63747;48.042;10.088;2023-02-28T05:13:38;8.63;;;6.30;;
75165;SDS011;63747;48.042;10.088;2023-02-28T05:16:39;7.10;;;5.27;;
75165;SDS011;63747;48.042;10.088;2023-02-28T05:19:40;8.50;;;6.60;;
75165;SDS011;63747;48.042;10.088;2023-02-28T05:22:40;8.63;;;6.10;;
75165;SDS011;63747;48.042;10.088;2023-02-28T05:25:42;9.30;;;6.35;;
75165;SDS011;63747;48.042;10.088;2023-02-28T05:28:42;9.13;;;7.07;;
75165;SDS011;63747;48.042;10.088;2023-02-28T05:31:43;8.67;;;5.83;;
75165;SDS011;63747;48.042;10.088;2023-02-28T05:34:44;9.83;;;6.43;;
75165;SDS011;63747;48.042;10.088;2023-02-28T05:37:45;10.13;;;6.23;;
75165;SDS011;63747;48.042;10.088;2023-02-28T05:40:45;10.43;;;6.60;;
75165;SDS011;63747;48.042;10.088;2023-02-28T05:43:46;9.77;;;7.33;;
75165;SDS011;63747;48.042;10.088;2023-02-28T05:46:47;9.80;;;6.50;;
75165;SDS011;63747;48.042;10.088;2023-02-28T05:49:48;9.80;;;7.67;;
75165;SDS011;63747;48.042;10.088;2023-02-28T05:52:52;9.83;;;6.97;;
75165;SDS011;63747;48.042;10.088;2023-02-28T05:55:53;9.82;;;8.07;;
75165;SDS011;63747;48.042;10.088;2023-02-28T05:58:53;10.00;;;8.10;;
75165;SDS011;63747;48.042;10.088;2023-02-28T06:01:54;10.23;;;7.80;;
75165;SDS011;63747;48.042;10.088;2023-02-28T06:04:55;11.37;;;8.33;;
75165;SDS011;63747;48.042;10.088;2023-02-28T06:07:56;11.03;;;8.30;;
75165;SDS011;63747;48.042;10.088;2023-02-28T06:10:56;10.67;;;7.53;;
75165;SDS011;63747;48.042;10.088;2023-02-28T06:13:57;9.03;;;7.60;;
75165;SDS011;63747;48.042;10.088;2023-02-28T06:17:00;16.13;;;8.80;;
75165;SDS011;63747;48.042;10.088;2023-02-28T06:20:02;10.50;;;8.25;;
75165;SDS011;63747;48.042;10.088;2023-02-28T06:23:03;13.00;;;8.88;;
75165;SDS011;63747;48.042;10.088;2023-02-28T06:26:04;11.03;;;8.60;;
75165;SDS011;63747;48.042;10.088;2023-02-28T06:29:05;10.82;;;8.13;;
75165;SDS011;63747;48.042;10.088;2023-02-28T06:32:06;12.67;;;9.50;;
75165;SDS011;63747;48.042;10.088;2023-02-28T06:35:07;10.67;;;7.80;;
75165;SDS011;63747;48.042;10.088;2023-02-28T06:38:07;13.10;;;9.13;;
75165;SDS011;63747;48.042;10.088;2023-02-28T06:41:09;10.73;;;8.87;;
75165;SDS011;63747;48.042;10.088;2023-02-28T06:44:13;12.55;;;8.35;;
75165;SDS011;63747;48.042;10.088;2023-02-28T06:47:16;13.57;;;8.55;;
75165;SDS011;63747;48.042;10.088;2023-02-28T06:50:17;10.83;;;8.73;;
75165;SDS011;63747;48.042;10.088;2023-02-28T06:53:19;11.10;;;7.88;;
75165;SDS011;63747;48.042;10.088;2023-02-28T06:56:20;12.73;;;7.97;;
75165;SDS011;63747;48.042;10.088;2023-02-28T06:59:20;10.00;;;7.97;;
75165;SDS011;63747;48.042;10.088;2023-02-28T07:02:21;11.40;;;8.60;;
75165;SDS011;63747;48.042;10.088;2023-02-28T07:05:22;14.10;;;9.80;;
75165;SDS011;63747;48.042;10.088;2023-02-28T07:08:23;12.30;;;8.90;;
75165;SDS011;63747;48.042;10.088;2023-02-28T07:11:25;12.63;;;8.25;;
75165;SDS011;63747;48.042;10.088;2023-02-28T07:14:27;13.07;;;9.02;;
75165;SDS011;63747;48.042;10.088;2023-02-28T07:17:28;12.93;;;8.43;;
75165;SDS011;63747;48.042;10.088;2023-02-28T07:20:29;12.37;;;8.70;;
75165;SDS011;63747;48.042;10.088;2023-02-28T07:23:30;11.85;;;7.45;;
75165;SDS011;63747;48.042;10.088;2023-02-28T07:26:31;11.83;;;8.10;;
75165;SDS011;63747;48.042;10.088;2023-02-28T07:29:34;13.02;;;9.60;;
75165;SDS011;63747;48.042;10.088;2023-02-28T07:32:34;12.20;;;9.13;;
75165;SDS011;63747;48.042;10.088;2023-02-28T07:35:37;10.85;;;9.48;;
75165;SDS011;63747;48.042;10.088;2023-02-28T07:38:38;13.37;;;9.33;;
75165;SDS011;63747;48.042;10.088;2023-02-28T07:41:39;12.20;;;9.60;;
75165;SDS011;63747;48.042;10.088;2023-02-28T07:44:43;12.40;;;9.38;;
75165;SDS011;63747;48.042;10.088;2023-02-28T07:47:43;14.47;;;10.17;;
75165;SDS011;63747;48.042;10.088;2023-02-28T07:50:44;13.40;;;9.00;;
75165;SDS011;63747;48.042;10.088;2023-02-28T07:53:48;14.68;;;10.73;;
75165;SDS011;63747;48.042;10.088;2023-02-28T07:56:48;14.47;;;9.87;;
75165;SDS011;63747;48.042;10.088;2023-02-28T07:59:49;11.50;;;9.50;;
75165;SDS011;63747;48.042;10.088;2023-02-28T08:02:50;13.63;;;10.60;;
75165;SDS011;63747;48.042;10.088;2023-02-28T08:05:51;16.30;;;10.83;;
75165;SDS011;63747;48.042;10.088;2023-02-28T08:08:52;14.27;;;10.00;;
75165;SDS011;63747;48.042;10.088;2023-02-28T08:11:53;13.43;;;9.95;;
75165;SDS011;63747;48.042;10.088;2023-02-28T08:14:54;12.87;;;8.77;;
75165;SDS011;63747;48.042;10.088;2023-02-28T08:17:55;9.50;;;5.97;;
75165;SDS011;63747;48.042;10.088;2023-02-28T08:20:56;14.50;;;10.40;;
75165;SDS011;63747;48.042;10.088;2023-02-28T08:23:57;12.68;;;9.15;;
75165;SDS011;63747;48.042;10.088;2023-02-28T08:26:58;13.77;;;10.10;;
75165;SDS011;63747;48.042;10.088;2023-02-28T08:29:58;13.47;;;10.73;;
75165;SDS011;63747;48.042;10.088;2023-02-28T08:32:59;13.37;;;10.63;;
75165;SDS011;63747;48.042;10.088;2023-02-28T08:36:01;14.85;;;11.20;;
75165;SDS011;63747;48.042;10.088;2023-02-28T08:39:02;13.10;;;10.07;;
75165;SDS011;63747;48.042;10.088;2023-02-28T08:42:04;10.50;;;8.07;;
75165;SDS011;63747;48.042;10.088;2023-02-28T08:45:05;12.90;;;10.13;;
75165;SDS011;63747;48.042;10.088;2023-02-28T08:48:06;13.73;;;11.15;;
75165;SDS011;63747;48.042;10.088;2023-02-28T08:51:08;14.97;;;11.70;;
75165;SDS011;63747;48.042;10.088;2023-02-28T08:54:10;15.07;;;10.80;;
75165;SDS011;63747;48.042;10.088;2023-02-28T08:57:16;12.93;;;9.55;;
75165;SDS011;63747;48.042;10.088;2023-02-28T09:00:16;14.47;;;10.93;;
75165;SDS011;63747;48.042;10.088;2023-02-28T09:03:17;17.23;;;10.70;;
75165;SDS011;63747;48.042;10.088;2023-02-28T09:06:19;14.63;;;11.47;;
75165;SDS011;63747;48.042;10.088;2023-02-28T09:09:21;14.88;;;10.85;;
75165;SDS011;63747;48.042;10.088;2023-02-28T09:12:25;14.10;;;10.50;;
75165;SDS011;63747;48.042;10.088;2023-02-28T09:15:27;15.38;;;10.82;;
75165;SDS011;63747;48.042;10.088;2023-02-28T09:18:28;14.43;;;11.60;;
75165;SDS011;63747;48.042;10.088;2023-02-28T09:21:29;12.10;;;10.23;;
75165;SDS011;63747;48.042;10.088;2023-02-28T09:24:29;27.33;;;10.53;;
75165;SDS011;63747;48.042;10.088;2023-02-28T09:30:32;13.73;;;10.57;;
75165;SDS011;63747;48.042;10.088;2023-02-28T09:33:32;15.97;;;11.50;;
75165;SDS011;63747;48.042;10.088;2023-02-28T09:36:34;14.55;;;11.57;;
75165;SDS011;63747;48.042;10.088;2023-02-28T09:39:37;15.43;;;10.90;;
75165;SDS011;63747;48.042;10.088;2023-02-28T09:42:38;14.90;;;10.80;;
75165;SDS011;63747;48.042;10.088;2023-02-28T09:45:40;13.00;;;10.43;;
75165;SDS011;63747;48.042;10.088;2023-02-28T09:48:44;15.23;;;11.68;;
75165;SDS011;63747;48.042;10.088;2023-02-28T09:51:50;16.15;;;10.80;;
75165;SDS011;63747;48.042;10.088;2023-02-28T09:54:55;14.48;;;11.68;;
75165;SDS011;63747;48.042;10.088;2023-02-28T09:57:56;13.37;;;10.07;;
75165;SDS011;63747;48.042;10.088;2023-02-28T10:01:02;12.93;;;10.40;;
75165;SDS011;63747;48.042;10.088;2023-02-28T10:10:37;14.20;;;11.75;;
75165;SDS011;63747;48.042;10.088;2023-02-28T10:17:02;13.30;;;11.25;;
75165;SDS011;63747;48.042;10.088;2023-02-28T10:20:17;14.43;;;10.48;;
75165;SDS011;63747;48.042;10.088;2023-02-28T10:23:22;14.48;;;11.18;;
75165;SDS011;63747;48.042;10.088;2023-02-28T10:26:27;16.55;;;12.10;;
75165;SDS011;63747;48.042;10.088;2023-02-28T10:29:31;18.70;;;12.75;;
75165;SDS011;63747;48.042;10.088;2023-02-28T10:32:34;14.88;;;12.15;;
75165;SDS011;63747;48.042;10.088;2023-02-28T10:35:36;15.05;;;12.48;;
75165;SDS011;63747;48.042;10.088;2023-02-28T10:38:38;20.13;;;13.70;;
75165;SDS011;63747;48.042;10.088;2023-02-28T10:41:41;12.57;;;10.65;;
75165;SDS011;63747;48.042;10.088;2023-02-28T10:44:43;16.42;;;12.80;;
75165;SDS011;63747;48.042;10.088;2023-02-28T10:47:57;16.57;;;13.23;;
75165;SDS011;63747;48.042;10.088;2023-02-28T10:50:58;17.23;;;13.15;;
75165;SDS011;63747;48.042;10.088;2023-02-28T10:53:59;16.88;;;13.00;;
75165;SDS011;63747;48.042;10.088;2023-02-28T10:57:08;17.10;;;12.83;;
75165;SDS011;63747;48.042;10.088;2023-02-28T11:00:19;15.13;;;11.07;;
75165;SDS011;63747;48.042;10.088;2023-02-28T11:03:29;18.17;;;13.50;;
75165;SDS011;63747;48.042;10.088;2023-02-28T11:06:33;16.33;;;12.70;;
75165;SDS011;63747;48.042;10.088;2023-02-28T11:09:36;15.45;;;12.65;;
75165;SDS011;63747;48.042;10.088;2023-02-28T11:12:39;15.85;;;13.60;;
75165;SDS011;63747;48.042;10.088;2023-02-28T11:15:42;18.13;;;13.80;;
75165;SDS011;63747;48.042;10.088;2023-02-28T11:18:53;15.85;;;13.07;;
75165;SDS011;63747;48.042;10.088;2023-02-28T11:21:56;14.80;;;9.35;;
75165;SDS011;63747;48.042;10.088;2023-02-28T11:25:00;16.10;;;13.00;;
75165;SDS011;63747;48.042;10.088;2023-02-28T11:28:23;16.08;;;12.82;;
75165;SDS011;63747;48.042;10.088;2023-02-28T11:31:26;16.90;;;13.40;;
75165;SDS011;63747;48.042;10.088;2023-02-28T11:34:29;17.05;;;13.65;;
75165;SDS011;63747;48.042;10.088;2023-02-28T11:37:31;19.38;;;14.52;;
75165;SDS011;63747;48.042;10.088;2023-02-28T11:40:39;17.33;;;13.23;;
75165;SDS011;63747;48.042;10.088;2023-02-28T11:43:57;16.73;;;13.15;;
75165;SDS011;63747;48.042;10.088;2023-02-28T11:47:22;20.30;;;13.80;;
75165;SDS011;63747;48.042;10.088;2023-02-28T11:57:15;16.02;;;13.07;;
75165;SDS011;63747;48.042;10.088;2023-02-28T12:04:14;14.82;;;11.57;;
75165;SDS011;63747;48.042;10.088;2023-02-28T12:07:42;15.68;;;12.80;;
75165;SDS011;63747;48.042;10.088;2023-02-28T12:14:26;14.88;;;12.65;;
75165;SDS011;63747;48.042;10.088;2023-02-28T12:17:50;15.90;;;12.10;;
75165;SDS011;63747;48.042;10.088;2023-02-28T12:27:25;13.38;;;11.27;;
75165;SDS011;63747;48.042;10.088;2023-02-28T12:30:31;13.95;;;11.50;;
75165;SDS011;63747;48.042;10.088;2023-02-28T12:33:36;13.88;;;11.00;;
75165;SDS011;63747;48.042;10.088;2023-02-28T12:36:41;14.88;;;11.40;;
75165;SDS011;63747;48.042;10.088;2023-02-28T12:39:45;13.63;;;11.55;;
75165;SDS011;63747;48.042;10.088;2023-02-28T12:42:51;18.70;;;12.20;;
75165;SDS011;63747;48.042;10.088;2023-02-28T12:45:56;14.30;;;10.75;;
75165;SDS011;63747;48.042;10.088;2023-02-28T12:49:02;17.17;;;12.95;;
75165;SDS011;63747;48.042;10.088;2023-02-28T12:52:08;13.68;;;11.05;;
75165;SDS011;63747;48.042;10.088;2023-02-28T12:55:15;15.18;;;11.95;;
75165;SDS011;63747;48.042;10.088;2023-02-28T12:58:38;13.02;;;10.25;;
75165;SDS011;63747;48.042;10.088;2023-02-28T13:05:24;15.07;;;12.00;;
75165;SDS011;63747;48.042;10.088;2023-02-28T13:11:59;15.98;;;12.48;;
75165;SDS011;63747;48.042;10.088;2023-02-28T13:15:22;14.30;;;11.97;;
75165;SDS011;63747;48.042;10.088;2023-02-28T13:18:35;15.23;;;12.07;;
75165;SDS011;63747;48.042;10.088;2023-02-28T13:21:46;14.15;;;11.63;;
75165;SDS011;63747;48.042;10.088;2023-02-28T13:24:54;14.48;;;11.65;;
75165;SDS011;63747;48.042;10.088;2023-02-28T13:27:56;13.95;;;12.15;;
75165;SDS011;63747;48.042;10.088;2023-02-28T13:31:04;14.77;;;11.50;;
75165;SDS011;63747;48.042;10.088;2023-02-28T13:34:12;15.32;;;12.13;;
75165;SDS011;63747;48.042;10.088;2023-02-28T13:37:36;14.57;;;11.73;;
75165;SDS011;63747;48.042;10.088;2023-02-28T13:40:43;15.10;;;11.68;;
75165;SDS011;63747;48.042;10.088;2023-02-28T13:47:19;14.32;;;11.23;;
75165;SDS011;63747;48.042;10.088;2023-02-28T13:56:51;13.77;;;11.13;;
75165;SDS011;63747;48.042;10.088;2023-02-28T14:00:55;14.05;;;11.68;;
75165;SDS011;63747;48.042;10.088;2023-02-28T14:07:09;13.40;;;11.45;;
75165;SDS011;63747;48.042;10.088;2023-02-28T14:10:40;13.88;;;11.23;;
75165;SDS011;63747;48.042;10.088;2023-02-28T14:13:46;14.80;;;11.18;;
75165;SDS011;63747;48.042;10.088;2023-02-28T14:16:47;15.60;;;11.50;;
75165;SDS011;63747;48.042;10.088;2023-02-28T14:19:50;13.43;;;11.77;;
75165;SDS011;63747;48.042;10.088;2023-02-28T14:36:07;13.63;;;11.63;;
75165;SDS011;63747;48.042;10.088;2023-02-28T14:39:23;14.20;;;12.05;;
75165;SDS011;63747;48.042;10.088;2023-02-28T14:45:29;13.60;;;11.18;;
75165;SDS011;63747;48.042;10.088;2023-02-28T14:48:32;14.38;;;11.45;;
75165;SDS011;63747;48.042;10.088;2023-02-28T14:51:35;14.05;;;11.98;;
75165;SDS011;63747;48.042;10.088;2023-02-28T14:54:36;12.77;;;11.40;;
75165;SDS011;63747;48.042;10.088;2023-02-28T14:57:42;13.55;;;11.27;;
75165;SDS011;63747;48.042;10.088;2023-02-28T15:00:53;12.88;;;11.55;;
75165;SDS011;63747;48.042;10.088;2023-02-28T15:03:59;15.25;;;11.80;;
75165;SDS011;63747;48.042;10.088;2023-02-28T15:07:09;15.32;;;12.80;;
75165;SDS011;63747;48.042;10.088;2023-02-28T15:13:18;14.15;;;11.82;;
75165;SDS011;63747;48.042;10.088;2023-02-28T15:16:20;13.83;;;11.67;;
75165;SDS011;63747;48.042;10.088;2023-02-28T15:19:26;14.32;;;11.82;;
75165;SDS011;63747;48.042;10.088;2023-02-28T15:22:34;14.55;;;12.05;;
75165;SDS011;63747;48.042;10.088;2023-02-28T15:25:37;15.07;;;12.00;;
75165;SDS011;63747;48.042;10.088;2023-02-28T15:28:40;13.18;;;11.27;;
75165;SDS011;63747;48.042;10.088;2023-02-28T15:31:51;14.30;;;12.50;;
75165;SDS011;63747;48.042;10.088;2023-02-28T15:34:58;18.40;;;13.30;;
75165;SDS011;63747;48.042;10.088;2023-02-28T15:38:27;14.55;;;12.85;;
75165;SDS011;63747;48.042;10.088;2023-02-28T15:41:35;13.73;;;11.53;;
75165;SDS011;63747;48.042;10.088;2023-02-28T15:44:40;15.30;;;11.88;;
75165;SDS011;63747;48.042;10.088;2023-02-28T15:47:44;15.03;;;11.23;;
75165;SDS011;63747;48.042;10.088;2023-02-28T15:50:48;16.38;;;11.45;;
75165;SDS011;63747;48.042;10.088;2023-02-28T15:53:54;17.17;;;11.65;;
75165;SDS011;63747;48.042;10.088;2023-02-28T15:56:59;14.52;;;12.23;;
75165;SDS011;63747;48.042;10.088;2023-02-28T16:00:06;12.02;;;10.70;;
75165;SDS011;63747;48.042;10.088;2023-02-28T16:03:25;16.40;;;11.77;;
75165;SDS011;63747;48.042;10.088;2023-02-28T16:12:42;16.85;;;11.50;;
75165;SDS011;63747;48.042;10.088;2023-02-28T16:15:43;14.83;;;12.40;;
75165;SDS011;63747;48.042;10.088;2023-02-28T16:18:44;14.70;;;12.38;;
75165;SDS011;63747;48.042;10.088;2023-02-28T16:21:45;14.83;;;12.00;;
75165;SDS011;63747;48.042;10.088;2023-02-28T16:24:46;15.05;;;11.57;;
75165;SDS011;63747;48.042;10.088;2023-02-28T16:27:48;14.82;;;12.45;;
75165;SDS011;63747;48.042;10.088;2023-02-28T16:30:51;16.13;;;12.25;;
75165;SDS011;63747;48.042;10.088;2023-02-28T16:33:52;15.88;;;11.93;;
75165;SDS011;63747;48.042;10.088;2023-02-28T16:36:53;14.47;;;11.47;;
75165;SDS011;63747;48.042;10.088;2023-02-28T16:39:54;14.97;;;12.10;;
75165;SDS011;63747;48.042;10.088;2023-02-28T16:42:58;14.23;;;11.57;;
75165;SDS011;63747;48.042;10.088;2023-02-28T16:46:00;14.07;;;11.13;;
75165;SDS011;63747;48.042;10.088;2023-02-28T16:49:03;14.27;;;11.45;;
75165;SDS011;63747;48.042;10.088;2023-02-28T16:52:04;13.67;;;11.53;;
75165;SDS011;63747;48.042;10.088;2023-02-28T16:55:05;16.15;;;12.02;;
75165;SDS011;63747;48.042;10.088;2023-02-28T16:58:06;26.45;;;19.45;;
75165;SDS011;63747;48.042;10.088;2023-02-28T17:01:14;19.27;;;13.57;;
75165;SDS011;63747;48.042;10.088;2023-02-28T17:04:16;27.08;;;20.40;;
75165;SDS011;63747;48.042;10.088;2023-02-28T17:07:18;20.65;;;16.88;;
75165;SDS011;63747;48.042;10.088;2023-02-28T17:10:20;36.10;;;26.07;;
75165;SDS011;63747;48.042;10.088;2023-02-28T17:13:22;21.02;;;15.70;;
75165;SDS011;63747;48.042;10.088;2023-02-28T17:16:33;23.73;;;14.70;;
75165;SDS011;63747;48.042;10.088;2023-02-28T17:19:35;20.35;;;15.70;;
75165;SDS011;63747;48.042;10.088;2023-02-28T17:22:38;23.70;;;16.38;;
75165;SDS011;63747;48.042;10.088;2023-02-28T17:25:38;24.83;;;17.27;;
75165;SDS011;63747;48.042;10.088;2023-02-28T17:28:39;21.23;;;16.93;;
75165;SDS011;63747;48.042;10.088;2023-02-28T17:31:40;22.47;;;16.93;;
75165;SDS011;63747;48.042;10.088;2023-02-28T17:34:40;21.00;;;15.87;;
75165;SDS011;63747;48.042;10.088;2023-02-28T17:37:41;24.27;;;16.33;;
75165;SDS011;63747;48.042;10.088;2023-02-28T17:40:42;22.15;;;16.38;;
75165;SDS011;63747;48.042;10.088;2023-02-28T17:43:44;24.30;;;17.08;;
75165;SDS011;63747;48.042;10.088;2023-02-28T17:46:45;20.07;;;16.00;;
75165;SDS011;63747;48.042;10.088;2023-02-28T17:49:46;21.70;;;17.65;;
75165;SDS011;63747;48.042;10.088;2023-02-28T17:52:47;24.67;;;16.10;;
75165;SDS011;63747;48.042;10.088;2023-02-28T17:55:48;21.93;;;16.63;;
75165;SDS011;63747;48.042;10.088;2023-02-28T17:58:49;20.88;;;16.65;;
75165;SDS011;63747;48.042;10.088;2023-02-28T18:01:52;24.00;;;17.35;;
75165;SDS011;63747;48.042;10.088;2023-02-28T18:04:53;22.00;;;17.83;;
75165;SDS011;63747;48.042;10.088;2023-02-28T18:07:53;22.67;;;18.27;;
75165;SDS011;63747;48.042;10.088;2023-02-28T18:10:54;24.73;;;17.90;;
75165;SDS011;63747;48.042;10.088;2023-02-28T18:13:55;21.80;;;16.60;;
75165;SDS011;63747;48.042;10.088;2023-02-28T18:16:56;21.17;;;17.42;;
75165;SDS011;63747;48.042;10.088;2023-02-28T18:19:57;22.80;;;17.30;;
75165;SDS011;63747;48.042;10.088;2023-02-28T18:22:59;21.77;;;16.63;;
75165;SDS011;63747;48.042;10.088;2023-02-28T18:26:00;21.90;;;17.83;;
75165;SDS011;63747;48.042;10.088;2023-02-28T18:29:01;21.67;;;16.87;;
75165;SDS011;63747;48.042;10.088;2023-02-28T18:32:02;20.67;;;17.13;;
75165;SDS011;63747;48.042;10.088;2023-02-28T18:35:05;22.42;;;16.35;;
75165;SDS011;63747;48.042;10.088;2023-02-28T18:38:13;23.02;;;16.92;;
75165;SDS011;63747;48.042;10.088;2023-02-28T18:41:16;25.65;;;16.90;;
75165;SDS011;63747;48.042;10.088;2023-02-28T18:44:17;24.23;;;16.95;;
75165;SDS011;63747;48.042;10.088;2023-02-28T18:47:18;25.77;;;17.30;;
75165;SDS011;63747;48.042;10.088;2023-02-28T18:50:18;21.33;;;17.93;;
75165;SDS011;63747;48.042;10.088;2023-02-28T18:53:19;25.73;;;19.10;;
75165;SDS011;63747;48.042;10.088;2023-02-28T18:56:20;24.80;;;17.63;;
75165;SDS011;63747;48.042;10.088;2023-02-28T18:59:25;25.13;;;18.10;;
75165;SDS011;63747;48.042;10.088;2023-02-28T19:02:26;23.70;;;18.03;;
75165;SDS011;63747;48.042;10.088;2023-02-28T19:05:26;24.77;;;18.10;;
75165;SDS011;63747;48.042;10.088;2023-02-28T19:08:31;24.75;;;19.17;;
75165;SDS011;63747;48.042;10.088;2023-02-28T19:11:32;25.27;;;18.87;;
75165;SDS011;63747;48.042;10.088;2023-02-28T19:14:33;27.10;;;19.05;;
75165;SDS011;63747;48.042;10.088;2023-02-28T19:17:34;27.53;;;18.50;;
75165;SDS011;63747;48.042;10.088;2023-02-28T19:20:35;29.50;;;18.58;;
75165;SDS011;63747;48.042;10.088;2023-02-28T19:23:36;29.57;;;19.73;;
75165;SDS011;63747;48.042;10.088;2023-02-28T19:26:38;24.15;;;19.70;;
75165;SDS011;63747;48.042;10.088;2023-02-28T19:29:39;26.60;;;19.03;;
75165;SDS011;63747;48.042;10.088;2023-02-28T19:32:39;28.93;;;19.87;;
75165;SDS011;63747;48.042;10.088;2023-02-28T19:35:40;26.07;;;18.93;;
75165;SDS011;63747;48.042;10.088;2023-02-28T19:38:41;24.35;;;19.23;;